Time;durP1;ratioP1;P1;durP2;ratioP2;P2;SDS_P1;SDS_P2;PMS_P1;PMS_P2;Temp;Humidity;BMP_temperature;BMP_pressure;BME280_temperature;BME280_humidity;BME280_pressure;Samples;Min_cycle;Max_cycle;Signal;HPM_P1;HPM_P2
2022/01/16 00:00:20;;;;;;;26.10;14.70;;;5.60;99.90;;;;;;4993479;28;20022;-71
2022/01/16 00:05:23;;;;;;;26.30;14.57;;;5.60;99.90;;;;;;4993054;28;20471;-71
2022/01/16 00:07:49;;;;;;;28.05;14.30;;;5.50;99.90;;;;;;4992839;28;20104;-70
2022/01/16 00:10:17;;;;;;;25.90;13.88;;;5.60;99.90;;;;;;4992942;28;20018;-71
2022/01/16 00:12:47;;;;;;;25.25;14.13;;;5.40;99.90;;;;;;4992650;28;20030;-70
2022/01/16 00:15:14;;;;;;;26.40;15.25;;;5.50;99.90;;;;;;4993339;28;20030;-71
2022/01/16 00:17:51;;;;;;;22.50;13.13;;;5.40;99.90;;;;;;4992800;28;20038;-71
2022/01/16 00:20:17;;;;;;;25.13;14.23;;;5.40;99.90;;;;;;4975715;28;20030;-71
2022/01/16 00:22:45;;;;;;;22.55;13.05;;;5.40;99.90;;;;;;4992590;28;20030;-71
2022/01/16 00:25:10;;;;;;;23.20;13.47;;;5.50;99.90;;;;;;4989832;28;20099;-70
2022/01/16 00:27:36;;;;;;;24.73;13.13;;;5.40;99.90;;;;;;5012051;28;20264;-71
2022/01/16 00:30:02;;;;;;;21.88;12.70;;;5.30;99.90;;;;;;5011437;28;20036;-71
2022/01/16 00:32:28;;;;;;;24.38;13.60;;;5.30;99.90;;;;;;5012084;28;20030;-70
2022/01/16 00:34:54;;;;;;;28.70;13.50;;;5.30;99.90;;;;;;4988185;28;20029;-71
2022/01/16 00:37:19;;;;;;;25.02;13.43;;;5.30;99.90;;;;;;4973077;28;20055;-71
2022/01/16 00:39:45;;;;;;;23.33;13.10;;;5.30;99.90;;;;;;4972877;28;20055;-71
2022/01/16 00:42:10;;;;;;;22.38;12.88;;;5.30;99.90;;;;;;4973378;28;20074;-71
2022/01/16 00:44:36;;;;;;;24.23;13.10;;;5.30;99.90;;;;;;4972898;28;20046;-71
2022/01/16 00:47:02;;;;;;;27.73;14.20;;;5.30;99.90;;;;;;4974222;28;20036;-71
2022/01/16 00:49:27;;;;;;;22.90;12.73;;;5.20;99.90;;;;;;4974831;28;20129;-71
2022/01/16 00:51:53;;;;;;;25.70;14.43;;;5.30;99.90;;;;;;4992080;28;20345;-71
2022/01/16 00:54:19;;;;;;;22.17;12.43;;;5.20;99.90;;;;;;4992312;28;20550;-71
2022/01/16 00:56:45;;;;;;;22.73;13.35;;;5.20;99.90;;;;;;4991888;28;20050;-71
2022/01/16 00:59:10;;;;;;;23.73;13.20;;;5.20;99.90;;;;;;4974016;28;20386;-71
2022/01/16 01:01:36;;;;;;;24.20;13.30;;;5.20;99.90;;;;;;4991714;28;20026;-71
2022/01/16 01:04:01;;;;;;;21.77;11.68;;;5.20;99.90;;;;;;4992136;28;20129;-71
2022/01/16 01:06:27;;;;;;;22.50;12.77;;;5.20;99.90;;;;;;4992192;28;20030;-71
2022/01/16 01:08:52;;;;;;;20.38;11.95;;;5.20;99.90;;;;;;4991915;28;20030;-72
2022/01/16 01:11:24;;;;;;;21.02;12.32;;;5.10;99.90;;;;;;4974469;28;20030;-72
2022/01/16 01:14:08;;;;;;;22.83;12.23;;;5.20;99.90;;;;;;4974590;28;20250;-70
2022/01/16 01:19:20;;;;;;;22.58;11.57;;;5.10;99.90;;;;;;4992387;28;20061;-69
2022/01/16 01:21:46;;;;;;;21.08;11.57;;;5.10;99.90;;;;;;4991608;28;20026;-70
2022/01/16 01:24:12;;;;;;;22.08;11.68;;;5.00;99.90;;;;;;4991858;28;20473;-70
2022/01/16 01:26:47;;;;;;;24.65;13.82;;;5.00;99.90;;;;;;4991538;28;20077;-71
2022/01/16 01:29:17;;;;;;;25.67;13.13;;;5.00;99.90;;;;;;4973796;28;20034;-70
2022/01/16 01:31:43;;;;;;;21.48;11.18;;;5.00;99.90;;;;;;4991394;28;20038;-70
2022/01/16 01:34:08;;;;;;;21.67;11.77;;;5.10;99.90;;;;;;4991339;28;20056;-71
2022/01/16 01:36:34;;;;;;;21.60;12.05;;;5.10;99.90;;;;;;4991011;28;20088;-69
2022/01/16 01:39:00;;;;;;;24.33;12.43;;;5.10;99.90;;;;;;4992111;28;20058;-69
2022/01/16 01:41:28;;;;;;;22.80;12.32;;;5.10;99.90;;;;;;4974181;28;20038;-70
2022/01/16 01:52:07;;;;;;;22.83;12.07;;;5.00;99.90;;;;;;4991288;28;20058;-70
2022/01/16 01:54:32;;;;;;;20.30;11.30;;;5.10;99.90;;;;;;4991079;28;20101;-70
2022/01/16 01:56:59;;;;;;;22.58;11.80;;;5.00;99.90;;;;;;4974512;28;20126;-70
2022/01/16 01:59:25;;;;;;;25.27;12.18;;;5.00;99.90;;;;;;4991142;28;20069;-71
2022/01/16 02:01:50;;;;;;;22.13;11.45;;;5.10;99.90;;;;;;4991228;28;20050;-69
2022/01/16 02:04:16;;;;;;;22.00;12.20;;;5.00;99.90;;;;;;4990749;28;20054;-71
2022/01/16 02:06:42;;;;;;;24.08;11.82;;;5.00;99.90;;;;;;4990852;28;20090;-71
2022/01/16 02:09:07;;;;;;;23.05;12.50;;;5.00;99.90;;;;;;4991641;28;20508;-71
2022/01/16 02:11:34;;;;;;;24.73;13.07;;;5.00;99.90;;;;;;4977807;28;20113;-70
2022/01/16 02:14:11;;;;;;;21.42;11.13;;;5.00;99.90;;;;;;4977556;28;20352;-70
2022/01/16 02:33:23;;;;;;;;;;;4.90;99.90;;;;;;5014794;28;20409;-71
2022/01/16 02:35:48;;;;;;;21.85;10.70;;;4.90;99.90;;;;;;5003541;28;19928;-70
2022/01/16 02:38:14;;;;;;;24.23;11.48;;;4.90;99.90;;;;;;4994389;28;20648;-70
2022/01/16 02:40:44;;;;;;;23.38;11.45;;;5.00;99.90;;;;;;4994526;28;20091;-69
2022/01/16 02:43:09;;;;;;;23.08;11.20;;;4.90;99.90;;;;;;4994395;28;20244;-71
2022/01/16 02:45:37;;;;;;;21.52;10.98;;;4.90;99.90;;;;;;5009189;28;20054;-70
2022/01/16 02:48:06;;;;;;;22.02;11.63;;;4.90;99.90;;;;;;5014455;28;20109;-71
2022/01/16 02:50:36;;;;;;;20.08;11.13;;;4.90;99.90;;;;;;4996405;28;20030;-71
2022/01/16 02:53:08;;;;;;;21.85;11.30;;;4.90;99.90;;;;;;5013570;28;20061;-70
2022/01/16 02:55:34;;;;;;;22.00;11.88;;;4.90;99.90;;;;;;5013795;28;20030;-71
2022/01/16 02:58:00;;;;;;;23.10;12.00;;;4.90;99.90;;;;;;5013844;28;20037;-70
2022/01/16 03:00:25;;;;;;;23.40;11.48;;;4.90;99.90;;;;;;5014329;28;20513;-70
2022/01/16 03:02:51;;;;;;;20.73;10.90;;;4.90;99.90;;;;;;5013609;28;20062;-71
2022/01/16 03:05:18;;;;;;;22.33;10.95;;;5.00;99.90;;;;;;5013929;28;20054;-70
2022/01/16 03:07:44;;;;;;;23.08;11.10;;;4.90;99.90;;;;;;5013721;28;20038;-72
2022/01/16 03:12:54;;;;;;;20.60;11.10;;;5.00;99.90;;;;;;5013662;28;20034;-71
2022/01/16 03:15:21;;;;;;;19.05;10.32;;;5.00;99.90;;;;;;4996725;28;20038;-70
2022/01/16 03:23:12;;;;;;;16.30;8.70;;;4.90;99.90;;;;;;5013580;28;20044;-70
2022/01/16 03:25:37;;;;;;;19.83;9.63;;;4.90;99.90;;;;;;5013380;28;20148;-71
2022/01/16 03:28:03;;;;;;;19.60;10.05;;;5.00;99.90;;;;;;5013343;28;20037;-70
2022/01/16 03:30:29;;;;;;;18.55;9.52;;;5.00;99.90;;;;;;5013729;28;20022;-70
2022/01/16 03:32:54;;;;;;;19.38;10.27;;;5.00;99.90;;;;;;4995907;28;20030;-71
2022/01/16 03:35:20;;;;;;;17.92;9.57;;;5.00;99.90;;;;;;5011050;28;20034;-70
2022/01/16 03:37:46;;;;;;;20.02;10.65;;;5.10;99.90;;;;;;5013049;28;20028;-70
2022/01/16 03:40:12;;;;;;;18.95;9.85;;;5.10;99.90;;;;;;5013241;28;20031;-71
2022/01/16 03:42:39;;;;;;;16.33;9.48;;;5.10;99.90;;;;;;5013314;28;20034;-71
2022/01/16 03:45:07;;;;;;;22.67;10.40;;;5.10;99.90;;;;;;5013257;28;20104;-71
2022/01/16 03:47:33;;;;;;;21.33;10.57;;;5.20;99.90;;;;;;5012960;28;20133;-70
2022/01/16 03:49:59;;;;;;;16.27;9.18;;;5.30;99.90;;;;;;5012911;28;20045;-70
2022/01/16 03:52:25;;;;;;;18.25;9.85;;;5.30;99.90;;;;;;5011689;28;20042;-70
2022/01/16 03:54:51;;;;;;;18.88;9.77;;;5.30;99.90;;;;;;5012722;28;20040;-71
2022/01/16 03:57:17;;;;;;;19.33;9.80;;;5.30;99.90;;;;;;5013169;28;20426;-70
2022/01/16 03:59:42;;;;;;;17.17;9.07;;;5.40;99.90;;;;;;4995371;28;20038;-70
2022/01/16 04:02:08;;;;;;;19.73;10.23;;;5.20;99.90;;;;;;5012531;28;20128;-71
2022/01/16 04:04:34;;;;;;;18.90;9.82;;;5.30;99.90;;;;;;5012600;28;20387;-70
2022/01/16 04:07:00;;;;;;;17.83;9.38;;;5.30;99.90;;;;;;5012524;28;20041;-71
2022/01/16 04:09:27;;;;;;;20.67;10.60;;;5.30;99.90;;;;;;4995512;28;20033;-70
2022/01/16 04:11:55;;;;;;;19.05;10.73;;;5.20;99.90;;;;;;5012536;28;20527;-70
2022/01/16 04:15:31;;;;;;;26.13;12.48;;;5.30;99.90;;;;;;4995145;28;20037;-72
2022/01/16 04:17:19;;;;;;;22.08;12.27;;;5.40;99.90;;;;;;5011996;28;20080;-71
2022/01/16 04:19:46;;;;;;;22.10;12.27;;;5.50;99.90;;;;;;5012099;28;20037;-72
2022/01/16 04:22:13;;;;;;;24.35;12.55;;;5.60;99.90;;;;;;5012211;28;20312;-71
2022/01/16 04:24:39;;;;;;;25.48;13.55;;;5.60;99.90;;;;;;5011806;28;20468;-71
2022/01/16 04:27:05;;;;;;;24.83;12.73;;;5.60;99.90;;;;;;5011978;28;20314;-72
2022/01/16 04:29:31;;;;;;;23.05;12.18;;;5.70;99.90;;;;;;5012194;28;20083;-71
2022/01/16 04:31:56;;;;;;;22.88;12.38;;;5.60;99.90;;;;;;5011517;28;20034;-72
2022/01/16 04:34:22;;;;;;;25.77;13.52;;;5.50;99.90;;;;;;5011988;28;20117;-71
2022/01/16 04:36:48;;;;;;;24.42;12.80;;;5.70;99.90;;;;;;4976027;28;20030;-70
2022/01/16 04:39:19;;;;;;;22.33;11.35;;;5.40;99.90;;;;;;4992743;28;20037;-70
2022/01/16 04:44:30;;;;;;;25.20;12.27;;;5.30;99.90;;;;;;5006578;28;20257;-72
2022/01/16 04:46:57;;;;;;;22.63;11.90;;;5.40;99.90;;;;;;5011922;28;20072;-70
2022/01/16 04:49:22;;;;;;;24.00;11.75;;;5.30;99.90;;;;;;5011823;28;20515;-70
2022/01/16 04:51:48;;;;;;;24.30;12.57;;;5.30;99.90;;;;;;5011320;28;20029;-71
2022/01/16 04:54:14;;;;;;;22.30;11.63;;;5.40;99.90;;;;;;5012235;28;20037;-71
2022/01/16 04:56:40;;;;;;;24.38;12.38;;;5.30;99.90;;;;;;4993953;28;20029;-70
2022/01/16 04:59:07;;;;;;;23.92;12.13;;;5.30;99.90;;;;;;5011636;28;20113;-70
2022/01/16 05:01:33;;;;;;;21.00;11.70;;;5.40;99.90;;;;;;5011321;28;20072;-72
2022/01/16 05:03:58;;;;;;;25.95;12.45;;;5.10;99.90;;;;;;4994121;28;20486;-71
2022/01/16 05:06:24;;;;;;;19.23;11.13;;;5.10;99.90;;;;;;5011935;28;20603;-71
2022/01/16 05:08:50;;;;;;;22.33;12.23;;;4.90;99.90;;;;;;5011561;28;20033;-71
2022/01/16 05:11:21;;;;;;;23.48;11.98;;;5.00;99.90;;;;;;5011289;28;20026;-71
2022/01/16 05:18:56;;;;;;;22.67;12.18;;;5.00;99.90;;;;;;5011672;28;20355;-71
2022/01/16 05:21:23;;;;;;;25.90;13.48;;;4.90;99.90;;;;;;5012131;28;20029;-70
2022/01/16 05:23:48;;;;;;;25.75;13.05;;;4.80;99.90;;;;;;5011078;28;20068;-72
2022/01/16 05:26:17;;;;;;;24.45;12.80;;;4.90;99.90;;;;;;4993768;28;20041;-71
2022/01/16 05:28:43;;;;;;;21.65;10.80;;;4.80;99.90;;;;;;5010980;28;20041;-71
2022/01/16 05:31:09;;;;;;;25.17;12.52;;;4.80;99.90;;;;;;5011751;28;20030;-69
2022/01/16 05:33:34;;;;;;;23.58;10.43;;;4.80;99.90;;;;;;4991760;28;20096;-69
2022/01/16 05:36:00;;;;;;;18.58;9.45;;;4.80;99.90;;;;;;4992776;28;20030;-71
2022/01/16 05:38:25;;;;;;;16.25;8.65;;;4.80;99.90;;;;;;4974554;28;20054;-70
2022/01/16 05:40:51;;;;;;;15.15;8.05;;;4.80;99.90;;;;;;4991355;28;20062;-70
2022/01/16 05:43:17;;;;;;;15.68;8.45;;;4.70;99.90;;;;;;4991413;28;20061;-70
2022/01/16 05:45:42;;;;;;;17.48;8.27;;;4.70;99.90;;;;;;4991283;28;20511;-69
2022/01/16 05:48:08;;;;;;;12.52;6.85;;;4.80;99.90;;;;;;4991957;28;20104;-71
2022/01/16 05:50:34;;;;;;;15.90;8.40;;;4.90;99.90;;;;;;4991258;28;20376;-70
2022/01/16 05:53:01;;;;;;;14.25;8.05;;;4.90;99.90;;;;;;5008752;28;20034;-71
2022/01/16 05:55:31;;;;;;;13.77;7.45;;;4.90;99.90;;;;;;5010849;28;20057;-70
2022/01/16 05:57:57;;;;;;;16.52;7.18;;;5.10;99.90;;;;;;5010701;28;20104;-71
2022/01/16 06:00:23;;;;;;;15.45;8.35;;;5.00;99.90;;;;;;5011394;28;20042;-70
2022/01/16 06:02:48;;;;;;;13.25;7.47;;;5.10;99.90;;;;;;5010616;28;20114;-70
2022/01/16 06:05:16;;;;;;;14.27;7.20;;;5.10;99.90;;;;;;4993593;28;20026;-71
2022/01/16 06:07:45;;;;;;;15.25;8.80;;;5.20;99.90;;;;;;5010677;28;20068;-72
2022/01/16 06:10:11;;;;;;;15.15;7.82;;;5.30;99.90;;;;;;5010030;28;20022;-71
2022/01/16 06:12:37;;;;;;;15.45;7.63;;;5.30;99.90;;;;;;5010579;28;20029;-72
2022/01/16 06:15:05;;;;;;;16.30;8.07;;;5.30;99.90;;;;;;4993735;28;20030;-72
2022/01/16 06:17:31;;;;;;;22.40;9.68;;;5.30;99.90;;;;;;5010809;28;20478;-72
2022/01/16 06:19:57;;;;;;;15.30;8.48;;;5.40;99.90;;;;;;5010630;28;20125;-70
2022/01/16 06:22:22;;;;;;;15.95;8.73;;;5.40;99.90;;;;;;5010567;28;20584;-71
2022/01/16 06:24:48;;;;;;;17.15;9.30;;;5.30;99.90;;;;;;5009714;28;20046;-71
2022/01/16 06:27:13;;;;;;;16.02;8.55;;;5.20;99.90;;;;;;4991546;28;20038;-72
2022/01/16 06:29:39;;;;;;;15.40;8.70;;;5.20;99.90;;;;;;4973732;28;20329;-71
2022/01/16 06:32:05;;;;;;;13.77;7.43;;;5.20;99.90;;;;;;4990909;28;20026;-72
2022/01/16 06:34:30;;;;;;;14.15;8.52;;;5.30;99.90;;;;;;4990712;28;20073;-71
2022/01/16 06:36:58;;;;;;;15.27;8.35;;;5.40;99.90;;;;;;4973525;28;20022;-70
2022/01/16 06:39:24;;;;;;;15.55;8.55;;;5.40;99.90;;;;;;4990896;28;20525;-71
2022/01/16 06:41:50;;;;;;;15.27;7.40;;;5.40;99.90;;;;;;4991120;28;20114;-71
2022/01/16 06:44:16;;;;;;;14.30;7.82;;;5.50;99.90;;;;;;4971245;28;20158;-70
2022/01/16 06:46:42;;;;;;;16.45;8.15;;;5.40;99.90;;;;;;4971397;28;20035;-71
2022/01/16 06:49:10;;;;;;;15.35;8.18;;;5.50;99.90;;;;;;4971035;28;20034;-73
2022/01/16 06:51:36;;;;;;;;;;;5.50;99.90;;;;;;4971742;28;20026;-71
2022/01/16 06:54:03;;;;;;;15.75;7.95;;;5.50;99.90;;;;;;4972053;28;20251;-71
2022/01/16 06:56:30;;;;;;;16.10;8.93;;;5.40;99.90;;;;;;4973397;28;20073;-71
2022/01/16 06:58:56;;;;;;;20.85;9.75;;;5.30;99.90;;;;;;4977044;28;20038;-71
2022/01/16 07:01:22;;;;;;;19.10;9.40;;;5.30;99.90;;;;;;4994605;28;20030;-71
2022/01/16 07:03:49;;;;;;;21.73;10.98;;;5.40;99.90;;;;;;4994410;28;20030;-71
2022/01/16 07:06:15;;;;;;;25.10;11.10;;;5.40;99.90;;;;;;4994781;28;20101;-70
2022/01/16 07:08:41;;;;;;;24.27;9.82;;;5.30;99.90;;;;;;4994189;28;20054;-70
2022/01/16 07:11:08;;;;;;;25.77;10.82;;;5.30;99.90;;;;;;4994044;28;20065;-71
2022/01/16 07:13:33;;;;;;;23.33;10.85;;;5.30;99.90;;;;;;4976688;28;20053;-70
2022/01/16 07:15:59;;;;;;;25.00;11.18;;;5.40;99.90;;;;;;4994463;28;20038;-70
2022/01/16 07:18:25;;;;;;;25.10;11.50;;;5.50;99.90;;;;;;4994388;28;20026;-70
2022/01/16 07:20:50;;;;;;;29.00;13.88;;;5.60;99.90;;;;;;4993839;28;20066;-71
2022/01/16 07:23:17;;;;;;;29.02;12.55;;;5.40;99.90;;;;;;4993813;28;20033;-73
2022/01/16 07:25:42;;;;;;;33.95;13.18;;;5.40;99.90;;;;;;4995292;28;20133;-70
2022/01/16 07:28:08;;;;;;;28.83;13.68;;;5.40;99.90;;;;;;4995825;28;20499;-69
2022/01/16 07:30:36;;;;;;;36.63;14.90;;;5.40;99.90;;;;;;5013408;28;20104;-71
2022/01/16 07:33:06;;;;;;;38.35;14.90;;;5.40;99.90;;;;;;4996048;28;20037;-70
2022/01/16 07:35:32;;;;;;;41.63;17.10;;;5.40;99.90;;;;;;5012851;28;20132;-71
2022/01/16 07:37:58;;;;;;;40.97;16.25;;;5.40;99.90;;;;;;5013034;28;20042;-70
2022/01/16 07:40:26;;;;;;;47.13;17.98;;;5.40;99.90;;;;;;5012986;28;20040;-73
2022/01/16 07:42:52;;;;;;;46.65;17.50;;;5.40;99.90;;;;;;5012726;28;20030;-71
2022/01/16 07:45:18;;;;;;;42.28;17.85;;;5.30;99.90;;;;;;5013107;28;20026;-71
2022/01/16 07:47:44;;;;;;;51.17;20.33;;;5.30;99.90;;;;;;5012833;28;20049;-72
2022/01/16 07:50:11;;;;;;;47.50;19.38;;;5.20;99.90;;;;;;4995561;28;20026;-70
2022/01/16 07:52:36;;;;;;;49.90;19.00;;;5.20;99.90;;;;;;5012930;28;20044;-71
2022/01/16 07:55:03;;;;;;;60.53;21.30;;;5.30;99.90;;;;;;5012851;28;20101;-71
2022/01/16 07:57:29;;;;;;;46.47;19.33;;;5.40;99.90;;;;;;4995881;28;20548;-71
2022/01/16 07:59:54;;;;;;;55.13;20.75;;;5.40;99.90;;;;;;5012970;28;20451;-71
2022/01/16 08:02:20;;;;;;;49.15;20.58;;;5.30;99.90;;;;;;5012644;28;20053;-71
2022/01/16 08:04:46;;;;;;;57.25;20.50;;;5.40;99.90;;;;;;5012450;28;20074;-71
2022/01/16 08:07:11;;;;;;;54.53;22.02;;;5.40;99.90;;;;;;5010995;28;20030;-70
2022/01/16 08:09:38;;;;;;;52.92;21.85;;;5.40;99.90;;;;;;5012699;28;20022;-71
2022/01/16 08:12:07;;;;;;;50.70;20.05;;;5.30;99.90;;;;;;5012873;28;20026;-71
2022/01/16 08:14:35;;;;;;;56.92;21.33;;;5.40;99.90;;;;;;5012395;28;20029;-70
2022/01/16 08:17:01;;;;;;;52.42;21.60;;;5.30;99.90;;;;;;5012036;28;20045;-71
2022/01/16 08:19:28;;;;;;;48.40;19.67;;;5.40;99.90;;;;;;4994719;28;20125;-70
2022/01/16 08:21:54;;;;;;;58.50;21.95;;;5.40;99.90;;;;;;4994911;28;20046;-70
2022/01/16 08:24:20;;;;;;;56.60;21.63;;;5.50;99.90;;;;;;5006490;28;20054;-70
2022/01/16 08:26:46;;;;;;;54.00;22.23;;;5.60;99.90;;;;;;4975177;28;20061;-71
2022/01/16 08:29:12;;;;;;;60.78;23.33;;;5.50;99.90;;;;;;4992443;28;20096;-70
2022/01/16 08:31:37;;;;;;;65.25;22.80;;;5.50;99.90;;;;;;4989001;28;20134;-70
2022/01/16 08:34:03;;;;;;;53.40;22.27;;;5.50;99.90;;;;;;4992396;28;20361;-70
2022/01/16 08:36:29;;;;;;;54.35;21.95;;;5.40;99.90;;;;;;4993414;28;20026;-70
2022/01/16 08:38:55;;;;;;;61.08;22.65;;;5.40;99.90;;;;;;4990023;28;20058;-70
2022/01/16 08:41:24;;;;;;;54.67;23.38;;;5.50;99.90;;;;;;4992476;28;20626;-71
2022/01/16 08:43:50;;;;;;;54.78;22.98;;;5.60;99.90;;;;;;4992595;28;20038;-70
2022/01/16 08:46:15;;;;;;;55.92;21.83;;;5.50;99.90;;;;;;4992255;28;20030;-71
2022/01/16 08:48:41;;;;;;;64.72;24.88;;;5.50;99.90;;;;;;4992484;28;20034;-71
2022/01/16 08:51:07;;;;;;;62.22;24.70;;;5.50;99.90;;;;;;4987132;28;20022;-70
2022/01/16 08:53:33;;;;;;;58.03;24.80;;;5.50;99.90;;;;;;4992216;28;20038;-71
2022/01/16 08:55:59;;;;;;;62.55;25.35;;;5.50;99.90;;;;;;4992226;28;20117;-71
2022/01/16 08:58:25;;;;;;;58.03;25.15;;;5.50;99.90;;;;;;4991989;28;20030;-72
2022/01/16 09:00:51;;;;;;;63.40;24.45;;;5.40;99.90;;;;;;4992266;28;20022;-70
2022/01/16 09:03:20;;;;;;;57.15;25.20;;;5.50;99.90;;;;;;4992752;28;20041;-70
2022/01/16 09:05:46;;;;;;;59.05;24.67;;;5.40;99.90;;;;;;4974934;28;20030;-71
2022/01/16 09:08:13;;;;;;;60.33;24.70;;;5.40;99.90;;;;;;4991901;28;20038;-71
2022/01/16 09:10:41;;;;;;;64.03;25.80;;;5.50;99.90;;;;;;4991764;28;20042;-71
2022/01/16 09:13:11;;;;;;;71.18;26.30;;;5.50;99.90;;;;;;4974133;28;20255;-71
2022/01/16 09:15:38;;;;;;;66.80;26.20;;;5.50;99.90;;;;;;4991385;28;20456;-71
2022/01/16 09:18:04;;;;;;;64.95;25.77;;;5.50;99.90;;;;;;4991808;28;20377;-71
2022/01/16 09:20:30;;;;;;;62.03;26.40;;;5.50;99.90;;;;;;4974663;28;20097;-70
2022/01/16 09:22:56;;;;;;;64.13;26.58;;;5.60;99.90;;;;;;4991708;28;20038;-71
2022/01/16 09:25:22;;;;;;;59.22;26.35;;;5.60;99.90;;;;;;4988201;28;20041;-70
2022/01/16 09:27:48;;;;;;;62.53;24.67;;;5.70;99.90;;;;;;4986142;28;20484;-70
2022/01/16 09:30:14;;;;;;;63.17;25.52;;;5.70;99.90;;;;;;4973192;28;20098;-71
2022/01/16 09:32:40;;;;;;;70.35;27.13;;;5.70;99.90;;;;;;4986611;28;20669;-72
2022/01/16 09:35:08;;;;;;;61.17;25.90;;;5.60;99.90;;;;;;5011831;28;20030;-73
2022/01/16 09:37:34;;;;;;;69.25;28.77;;;5.70;99.90;;;;;;5011472;28;20030;-71
2022/01/16 09:40:00;;;;;;;62.75;26.27;;;5.80;99.90;;;;;;5011355;28;20502;-72
2022/01/16 09:42:27;;;;;;;65.80;27.35;;;5.70;99.90;;;;;;5011724;28;20029;-71
2022/01/16 09:44:53;;;;;;;66.00;28.17;;;5.70;99.90;;;;;;5011027;28;20029;-71
2022/01/16 09:47:19;;;;;;;65.53;27.08;;;5.80;99.90;;;;;;4993893;28;20395;-71
2022/01/16 09:49:46;;;;;;;65.13;28.45;;;5.80;99.90;;;;;;4992903;28;20037;-71
2022/01/16 09:52:11;;;;;;;62.83;27.13;;;5.80;99.90;;;;;;5011236;28;20088;-71
2022/01/16 09:54:37;;;;;;;63.33;26.95;;;5.90;99.90;;;;;;5011120;28;20399;-72
2022/01/16 09:57:04;;;;;;;63.78;27.77;;;5.90;99.90;;;;;;4979139;28;20026;-71
2022/01/16 09:59:29;;;;;;;68.45;27.52;;;5.90;99.90;;;;;;4991163;28;20098;-72
2022/01/16 10:01:56;;;;;;;64.13;26.77;;;6.00;99.90;;;;;;4991158;28;20042;-71
2022/01/16 10:04:33;;;;;;;70.68;29.02;;;5.90;99.90;;;;;;4973687;28;20126;-71
2022/01/16 10:07:02;;;;;;;64.18;28.50;;;5.90;99.90;;;;;;4991620;28;20036;-71
2022/01/16 10:09:28;;;;;;;68.97;27.90;;;6.00;99.90;;;;;;4974468;28;20026;-71
2022/01/16 10:12:01;;;;;;;70.22;29.45;;;6.00;99.90;;;;;;4978779;28;20029;-71
2022/01/16 10:14:34;;;;;;;66.53;28.88;;;6.00;99.90;;;;;;4988868;28;20037;-71
2022/01/16 10:17:11;;;;;;;67.88;28.92;;;6.00;99.90;;;;;;4990126;28;20081;-73
2022/01/16 10:19:37;;;;;;;65.25;26.70;;;6.00;99.90;;;;;;4986802;28;20039;-69
2022/01/16 10:22:06;;;;;;;69.47;28.92;;;6.10;99.90;;;;;;4990441;28;20038;-71
2022/01/16 10:24:34;;;;;;;62.28;28.02;;;6.20;99.90;;;;;;4990853;28;20046;-70
2022/01/16 10:27:09;;;;;;;64.97;27.70;;;6.10;99.90;;;;;;4991470;28;20026;-71
2022/01/16 10:29:42;;;;;;;66.30;28.67;;;6.00;99.90;;;;;;4990668;28;20081;-72
2022/01/16 10:32:22;;;;;;;67.63;28.65;;;6.10;99.90;;;;;;4994174;28;20030;-73
2022/01/16 10:34:51;;;;;;;65.25;28.23;;;6.10;99.90;;;;;;4977526;28;20030;-72
2022/01/16 10:37:30;;;;;;;69.30;28.27;;;6.10;99.90;;;;;;4977129;28;20026;-72
2022/01/16 10:39:55;;;;;;;65.68;27.17;;;6.20;99.90;;;;;;4976868;28;20057;-70
2022/01/16 10:42:21;;;;;;;67.00;26.40;;;6.10;99.90;;;;;;4977393;28;20026;-70
2022/01/16 10:44:56;;;;;;;67.45;26.48;;;6.10;99.90;;;;;;4994647;28;20360;-71
2022/01/16 10:47:31;;;;;;;68.20;25.77;;;6.10;99.90;;;;;;4993962;28;20101;-71
2022/01/16 10:50:08;;;;;;;60.65;24.55;;;6.10;99.90;;;;;;4993977;28;20038;-71
2022/01/16 10:52:48;;;;;;;54.65;24.50;;;6.10;99.90;;;;;;4976142;28;20039;-71
2022/01/16 10:55:14;;;;;;;61.20;25.48;;;6.20;99.90;;;;;;4993700;28;20030;-70
2022/01/16 10:57:40;;;;;;;61.53;25.52;;;6.30;99.90;;;;;;4989220;28;20112;-72
2022/01/16 11:00:08;;;;;;;59.22;24.80;;;6.30;99.90;;;;;;4977183;28;20018;-71
2022/01/16 11:02:34;;;;;;;59.05;24.33;;;6.30;99.90;;;;;;4994307;28;20054;-72
2022/01/16 11:05:17;;;;;;;57.17;25.27;;;6.30;99.90;;;;;;4993730;28;20065;-68
2022/01/16 11:07:43;;;;;;;55.95;23.95;;;6.40;99.90;;;;;;4976640;28;20057;-72
2022/01/16 11:10:33;;;;;;;63.85;24.67;;;6.50;99.90;;;;;;4993911;28;20034;-71
2022/01/16 11:13:05;;;;;;;54.40;23.77;;;6.40;99.90;;;;;;4986835;28;20035;-72
2022/01/16 11:15:32;;;;;;;57.65;25.08;;;6.40;99.90;;;;;;4993603;28;20026;-71
2022/01/16 11:17:58;;;;;;;56.53;22.42;;;6.40;99.90;;;;;;4977008;28;20329;-72
2022/01/16 11:20:34;;;;;;;76.90;32.85;;;6.30;99.90;;;;;;4976610;28;20045;-72
2022/01/16 11:23:05;;;;;;;81.50;33.60;;;6.40;99.90;;;;;;4977849;28;20054;-70
2022/01/16 11:25:34;;;;;;;62.00;26.80;;;6.30;99.90;;;;;;5007973;28;20045;-69
2022/01/16 11:28:17;;;;;;;63.60;26.65;;;6.30;99.90;;;;;;4995545;28;20113;-71
2022/01/16 11:30:51;;;;;;;61.08;25.27;;;6.30;99.90;;;;;;5013207;28;20425;-69
2022/01/16 11:33:18;;;;;;;57.70;25.05;;;6.30;99.90;;;;;;4994288;28;20505;-69
2022/01/16 11:35:48;;;;;;;55.60;24.60;;;6.30;99.90;;;;;;5007838;28;20033;-70
2022/01/16 11:38:15;;;;;;;58.70;26.08;;;6.30;99.90;;;;;;4994456;28;20041;-71
2022/01/16 11:40:48;;;;;;;55.33;23.73;;;6.20;99.90;;;;;;5013042;28;20088;-69
2022/01/16 11:43:19;;;;;;;59.47;26.52;;;6.30;99.90;;;;;;5012643;28;20473;-71
2022/01/16 11:45:45;;;;;;;59.70;24.63;;;6.20;99.90;;;;;;5003620;28;20014;-73
2022/01/16 11:48:11;;;;;;;61.85;25.77;;;6.30;99.90;;;;;;4988961;28;20331;-72
2022/01/16 11:50:37;;;;;;;58.50;25.13;;;6.40;99.90;;;;;;4994764;28;20147;-72
2022/01/16 11:53:03;;;;;;;64.20;26.73;;;6.50;99.90;;;;;;4995613;28;20483;-72
2022/01/16 11:55:35;;;;;;;67.88;29.10;;;6.50;99.90;;;;;;5013886;28;20034;-69
2022/01/16 11:58:01;;;;;;;62.05;27.55;;;6.50;99.90;;;;;;5012749;28;20116;-69
2022/01/16 12:00:43;;;;;;;57.88;24.17;;;6.50;99.90;;;;;;4995485;28;20026;-70
2022/01/16 12:03:34;;;;;;;56.25;23.90;;;6.70;99.90;;;;;;5012014;28;20034;-69
2022/01/16 12:06:37;;;;;;;56.10;24.52;;;6.70;99.90;;;;;;5002865;28;20038;-72
2022/01/16 12:09:04;;;;;;;71.20;26.98;;;6.60;99.90;;;;;;4879443;29;20040;-70
2022/01/16 12:11:37;;;;;;;59.75;26.50;;;6.60;99.90;;;;;;4973573;28;20093;-70
2022/01/16 12:14:03;;;;;;;71.85;29.90;;;6.60;99.90;;;;;;4993230;28;20054;-70
2022/01/16 12:16:40;;;;;;;66.43;28.10;;;6.60;99.90;;;;;;5011513;28;20104;-70
2022/01/16 12:19:33;;;;;;;75.78;29.58;;;6.70;99.90;;;;;;5012295;28;20064;-70
2022/01/16 12:21:58;;;;;;;71.10;30.58;;;6.60;99.90;;;;;;4994851;28;20614;-70
2022/01/16 12:24:35;;;;;;;82.97;34.38;;;6.70;99.90;;;;;;5006440;28;20141;-71
2022/01/16 12:27:38;;;;;;;74.97;31.47;;;6.60;99.90;;;;;;4991789;28;20239;-71
2022/01/16 12:30:44;;;;;;;74.75;31.45;;;6.70;99.90;;;;;;4992197;28;20411;-70
2022/01/16 12:33:16;;;;;;;72.22;31.25;;;6.60;99.90;;;;;;4974497;28;20412;-71
2022/01/16 12:35:42;;;;;;;77.60;32.08;;;6.60;99.90;;;;;;4992097;28;20030;-72
2022/01/16 12:38:13;;;;;;;80.10;30.58;;;6.60;99.90;;;;;;4974484;28;20118;-70
2022/01/16 12:40:42;;;;;;;81.10;31.17;;;6.70;99.90;;;;;;4992181;28;20038;-70
2022/01/16 12:43:10;;;;;;;81.78;31.75;;;6.80;99.90;;;;;;4991566;28;20444;-70
2022/01/16 12:45:40;;;;;;;74.60;31.33;;;6.90;99.90;;;;;;4992296;28;20125;-71
2022/01/16 12:48:06;;;;;;;74.93;31.85;;;6.90;99.90;;;;;;4975396;28;20026;-70
2022/01/16 12:50:33;;;;;;;73.80;30.52;;;6.80;99.90;;;;;;4991945;28;20031;-70
2022/01/16 12:52:58;;;;;;;75.57;33.60;;;6.80;99.90;;;;;;4990655;28;20030;-70
2022/01/16 12:55:32;;;;;;;80.95;31.77;;;6.80;99.90;;;;;;4991790;28;20141;-71
2022/01/16 12:58:21;;;;;;;82.53;33.28;;;6.90;99.90;;;;;;4992120;28;20708;-71
2022/01/16 13:01:04;;;;;;;74.72;30.63;;;6.80;99.90;;;;;;4991985;28;20121;-71
2022/01/16 13:03:32;;;;;;;78.47;32.33;;;6.90;99.90;;;;;;4991392;28;20086;-72
2022/01/16 13:06:13;;;;;;;;;;;7.00;99.90;;;;;;4975635;28;20330;-70
2022/01/16 13:09:08;;;;;;;77.15;31.63;;;7.00;99.90;;;;;;4991837;28;19909;-74
2022/01/16 13:11:39;;;;;;;73.32;30.77;;;7.00;99.90;;;;;;4973800;28;20042;-76
2022/01/16 13:14:14;;;;;;;75.53;29.42;;;7.00;99.90;;;;;;4991790;28;20041;-76
2022/01/16 13:16:48;;;;;;;69.93;29.13;;;7.10;99.90;;;;;;4991724;28;20038;-77
2022/01/16 13:22:16;;;;;;;88.20;32.75;;;7.20;99.90;;;;;;4991332;28;20050;-76
2022/01/16 13:24:50;;;;;;;75.50;30.25;;;7.10;99.90;;;;;;4982499;28;20034;-74
2022/01/16 13:27:29;;;;;;;80.05;31.17;;;7.20;99.90;;;;;;5011942;28;20018;-78
2022/01/16 13:29:56;;;;;;;84.85;35.58;;;7.10;99.90;;;;;;5011709;28;20042;-74
2022/01/16 13:32:33;;;;;;;75.15;33.05;;;7.20;99.90;;;;;;5010726;28;20608;-74